Time;durP1;ratioP1;P1;durP2;ratioP2;P2;SDS_P1;SDS_P2;PMS_P1;PMS_P2;Temp;Humidity;BMP_temperature;BMP_pressure;BME280_temperature;BME280_humidity;BME280_pressure;Samples;Min_cycle;Max_cycle;Signal;HPM_P1;HPM_P2
2023/04/26 00:01:44;;;;;;;12.13;8.95;;;6.80;11.10;;;;;;7372128;19;20418;-69
2023/04/26 00:04:17;;;;;;;13.50;8.88;;;6.80;10.90;;;;;;7372353;19;20546;-68
2023/04/26 00:06:48;;;;;;;12.30;8.45;;;6.80;10.20;;;;;;7373592;19;20011;-69
2023/04/26 00:09:19;;;;;;;14.95;8.77;;;6.90;10.60;;;;;;7372172;19;20010;-69
2023/04/26 00:11:49;;;;;;;10.48;8.10;;;6.80;8.90;;;;;;7395188;19;20019;-69
2023/04/26 00:14:19;;;;;;;13.02;8.25;;;6.80;8.70;;;;;;7372238;19;20018;-69
2023/04/26 00:16:49;;;;;;;13.48;8.80;;;6.80;9.10;;;;;;7373292;19;20021;-69
2023/04/26 00:19:22;;;;;;;12.32;8.63;;;6.80;9.10;;;;;;7370506;19;20046;-70
2023/04/26 00:21:52;;;;;;;9.60;7.90;;;6.80;10.00;;;;;;7372216;19;20470;-70
2023/04/26 00:24:22;;;;;;;11.95;7.90;;;6.70;9.40;;;;;;7371014;19;20021;-70
2023/04/26 00:26:55;;;;;;;12.13;7.70;;;6.70;10.60;;;;;;7373747;19;20472;-70
2023/04/26 00:29:25;;;;;;;11.65;8.20;;;6.70;10.50;;;;;;7392535;19;20575;-70
2023/04/26 00:31:56;;;;;;;11.50;7.13;;;6.60;8.80;;;;;;7372990;19;20036;-70
2023/04/26 00:34:33;;;;;;;13.63;8.20;;;6.60;9.10;;;;;;7370291;19;20351;-70
2023/04/26 00:37:04;;;;;;;14.07;8.07;;;6.50;8.60;;;;;;7372656;19;20549;-70
2023/04/26 00:39:34;;;;;;;12.98;8.43;;;6.50;9.30;;;;;;7371185;19;20481;-69
2023/04/26 00:42:04;;;;;;;14.52;8.48;;;6.40;8.80;;;;;;7372615;19;20010;-70
2023/04/26 00:44:33;;;;;;;15.20;8.38;;;6.40;9.40;;;;;;7393235;19;20019;-69
2023/04/26 00:47:03;;;;;;;11.93;8.00;;;6.30;9.50;;;;;;7371876;19;20086;-69
2023/04/26 00:49:36;;;;;;;14.23;8.30;;;6.30;8.90;;;;;;7370904;19;20010;-70
2023/04/26 00:52:06;;;;;;;12.85;8.05;;;6.30;8.60;;;;;;7373134;19;20034;-69
2023/04/26 00:54:36;;;;;;;11.05;7.93;;;6.20;8.30;;;;;;7371085;19;20025;-70
2023/04/26 00:57:08;;;;;;;14.40;8.07;;;6.20;9.40;;;;;;7372313;19;20466;-70
2023/04/26 00:59:38;;;;;;;11.98;7.80;;;6.20;9.90;;;;;;7392624;19;20025;-70
2023/04/26 01:02:08;;;;;;;15.65;8.55;;;6.20;9.70;;;;;;7371771;19;20329;-70
2023/04/26 01:04:41;;;;;;;16.77;8.65;;;6.20;9.70;;;;;;7370690;19;20090;-70
2023/04/26 01:07:11;;;;;;;16.95;8.77;;;6.20;9.40;;;;;;7372467;19;20011;-69
2023/04/26 01:09:42;;;;;;;15.02;8.70;;;6.10;10.00;;;;;;7369473;19;20021;-69
2023/04/26 01:12:12;;;;;;;14.02;8.88;;;6.10;10.30;;;;;;7371651;19;20557;-70
2023/04/26 01:14:42;;;;;;;11.95;8.30;;;6.10;10.30;;;;;;7392192;19;20538;-69
2023/04/26 01:17:12;;;;;;;13.75;7.97;;;6.10;10.20;;;;;;7369003;19;20010;-69
2023/04/26 01:19:51;;;;;;;10.63;6.85;;;6.10;8.60;;;;;;7368596;19;20549;-70
2023/04/26 01:22:21;;;;;;;12.93;7.80;;;6.00;7.40;;;;;;7370609;19;20423;-69
2023/04/26 01:24:57;;;;;;;11.23;6.97;;;6.10;6.80;;;;;;7369283;19;20020;-69
2023/04/26 01:27:27;;;;;;;11.07;7.45;;;6.10;7.40;;;;;;7372244;19;20018;-69
2023/04/26 01:29:57;;;;;;;13.00;7.28;;;6.10;5.00;;;;;;7369045;19;20038;-70
2023/04/26 01:32:27;;;;;;;16.33;7.60;;;6.10;3.50;;;;;;7392918;19;20042;-70
2023/04/26 01:34:57;;;;;;;13.88;7.75;;;6.10;4.30;;;;;;7368546;19;20017;-70
2023/04/26 01:37:27;;;;;;;12.13;7.93;;;6.00;4.90;;;;;;7371474;19;20631;-70
2023/04/26 01:39:59;;;;;;;14.73;7.65;;;6.00;6.00;;;;;;7369008;19;20010;-70
2023/04/26 01:42:29;;;;;;;13.43;7.85;;;6.00;7.00;;;;;;7370807;19;20018;-70
2023/04/26 01:44:59;;;;;;;15.10;8.13;;;5.90;7.00;;;;;;7368370;19;20088;-70
2023/04/26 01:47:29;;;;;;;11.98;7.20;;;5.80;7.30;;;;;;7392975;19;20030;-70
2023/04/26 01:49:59;;;;;;;13.13;8.25;;;5.80;8.20;;;;;;7368238;19;20014;-69
2023/04/26 01:52:29;;;;;;;12.65;8.15;;;5.80;8.30;;;;;;7370271;19;20007;-69
2023/04/26 01:55:01;;;;;;;13.95;8.35;;;5.80;8.10;;;;;;7368655;19;20007;-69
2023/04/26 01:57:31;;;;;;;14.85;8.05;;;5.80;9.10;;;;;;7371294;19;20011;-69
2023/04/26 02:00:01;;;;;;;14.50;9.00;;;5.80;9.90;;;;;;7368638;19;20030;-71
2023/04/26 02:02:31;;;;;;;13.20;7.82;;;5.80;9.50;;;;;;7391890;19;20015;-70
2023/04/26 02:05:01;;;;;;;12.90;7.95;;;5.80;9.00;;;;;;7367881;19;20483;-70
2023/04/26 02:07:31;;;;;;;14.18;8.15;;;5.80;9.10;;;;;;7371855;19;20002;-69
2023/04/26 02:10:04;;;;;;;14.65;9.23;;;5.80;8.50;;;;;;7368450;19;20010;-70
2023/04/26 02:12:34;;;;;;;12.23;8.57;;;5.80;9.20;;;;;;7369283;19;20031;-69
2023/04/26 02:15:04;;;;;;;14.73;8.18;;;5.90;9.90;;;;;;7368134;19;20017;-70
2023/04/26 02:17:34;;;;;;;12.93;8.00;;;5.80;9.60;;;;;;7392684;19;20078;-69
2023/04/26 02:20:04;;;;;;;12.93;7.47;;;5.80;7.80;;;;;;7367003;19;20018;-69
2023/04/26 02:22:34;;;;;;;13.30;8.50;;;5.90;7.70;;;;;;7367133;19;20399;-69
2023/04/26 02:25:07;;;;;;;15.98;8.57;;;5.90;7.60;;;;;;7366259;19;20680;-69
2023/04/26 02:27:37;;;;;;;11.93;7.97;;;5.90;8.40;;;;;;7369875;19;20033;-70
2023/04/26 02:30:09;;;;;;;13.52;9.20;;;5.80;8.60;;;;;;7368364;19;20025;-69
2023/04/26 02:32:39;;;;;;;14.85;7.80;;;5.80;8.00;;;;;;7389898;19;20022;-69
2023/04/26 02:35:09;;;;;;;14.45;7.85;;;5.80;8.30;;;;;;7366885;19;20014;-70
2023/04/26 02:37:39;;;;;;;13.20;8.85;;;5.80;7.90;;;;;;7368732;19;20366;-69
2023/04/26 02:40:12;;;;;;;16.35;8.63;;;5.80;9.00;;;;;;7367636;19;20015;-69
2023/04/26 02:42:42;;;;;;;15.88;8.25;;;5.80;7.40;;;;;;7368309;19;20007;-69
2023/04/26 02:45:13;;;;;;;17.92;8.30;;;5.80;6.90;;;;;;7365553;19;20018;-69
2023/04/26 02:47:43;;;;;;;15.57;9.00;;;5.80;7.80;;;;;;7391043;19;20471;-70
2023/04/26 02:50:13;;;;;;;15.80;8.95;;;5.80;7.50;;;;;;7367114;19;20315;-69
2023/04/26 02:52:43;;;;;;;14.50;9.57;;;5.90;7.90;;;;;;7367777;19;20039;-69
2023/04/26 02:55:16;;;;;;;17.27;9.63;;;5.80;8.70;;;;;;7367340;19;20007;-69
2023/04/26 02:57:46;;;;;;;15.45;8.95;;;5.70;9.50;;;;;;7368296;19;20494;-69
2023/04/26 03:00:16;;;;;;;12.45;8.70;;;5.80;10.10;;;;;;7367572;19;20018;-69
2023/04/26 03:02:46;;;;;;;12.93;9.40;;;5.70;10.30;;;;;;7389161;19;20018;-69
2023/04/26 03:05:16;;;;;;;17.80;10.93;;;5.70;11.00;;;;;;7365328;19;20024;-69
2023/04/26 03:07:46;;;;;;;17.00;10.20;;;5.60;11.90;;;;;;7368102;19;20122;-69
2023/04/26 03:10:19;;;;;;;18.17;10.73;;;5.60;12.50;;;;;;7366382;19;20066;-69
2023/04/26 03:12:49;;;;;;;17.42;11.02;;;5.50;14.40;;;;;;7367917;19;20011;-69
2023/04/26 03:15:19;;;;;;;20.10;10.65;;;5.50;15.50;;;;;;7365939;19;20093;-69
2023/04/26 03:17:49;;;;;;;18.60;11.05;;;5.40;16.30;;;;;;7390367;19;20014;-68
2023/04/26 03:20:19;;;;;;;20.80;11.90;;;5.40;16.70;;;;;;7366344;19;20010;-69
2023/04/26 03:22:49;;;;;;;20.05;12.32;;;5.40;18.50;;;;;;7367762;19;20358;-69
2023/04/26 03:25:22;;;;;;;23.48;13.82;;;5.40;19.80;;;;;;7364806;19;20081;-70
2023/04/26 03:27:52;;;;;;;21.85;13.77;;;5.30;21.10;;;;;;7368319;19;20094;-69
2023/04/26 03:30:22;;;;;;;22.30;13.75;;;5.40;23.20;;;;;;7366039;19;20073;-69
2023/04/26 03:32:52;;;;;;;21.15;13.32;;;5.30;23.40;;;;;;7365106;19;20022;-69
2023/04/26 03:35:22;;;;;;;22.50;14.20;;;5.30;24.10;;;;;;7386650;19;20016;-70
2023/04/26 03:37:52;;;;;;;24.63;14.38;;;5.30;24.50;;;;;;7367275;19;20018;-70
2023/04/26 03:40:27;;;;;;;22.75;15.07;;;5.20;25.50;;;;;;7365393;19;20035;-69
2023/04/26 03:42:57;;;;;;;30.67;15.15;;;5.20;26.00;;;;;;7367276;19;20010;-68
2023/04/26 03:45:28;;;;;;;27.98;16.90;;;5.10;26.40;;;;;;7362691;19;20014;-69
2023/04/26 03:47:58;;;;;;;25.17;15.70;;;5.10;27.80;;;;;;7366572;19;20380;-69
2023/04/26 03:50:28;;;;;;;22.23;15.13;;;5.10;28.60;;;;;;7385743;19;20081;-69
2023/04/26 03:52:58;;;;;;;27.75;16.27;;;5.10;30.10;;;;;;7366481;19;20007;-69
2023/04/26 03:55:30;;;;;;;26.08;16.05;;;5.10;30.40;;;;;;7363671;19;20474;-69
2023/04/26 03:58:02;;;;;;;26.02;16.90;;;5.00;30.80;;;;;;7367388;19;20394;-70
2023/04/26 04:00:31;;;;;;;28.50;16.88;;;4.90;31.70;;;;;;7365053;19;20367;-69
2023/04/26 04:03:01;;;;;;;30.27;17.42;;;4.90;33.70;;;;;;7366775;19;20781;-68
2023/04/26 04:05:31;;;;;;;32.72;17.52;;;4.90;34.90;;;;;;7383193;19;20081;-70
2023/04/26 04:08:01;;;;;;;29.95;17.88;;;5.00;35.90;;;;;;7366090;19;20014;-70
2023/04/26 04:10:35;;;;;;;30.08;18.23;;;4.90;36.40;;;;;;7364937;19;20030;-70
2023/04/26 04:13:05;;;;;;;33.72;18.98;;;4.90;37.30;;;;;;7365642;19;20018;-69
2023/04/26 04:15:35;;;;;;;29.95;18.30;;;4.90;37.80;;;;;;7363688;19;20018;-70
2023/04/26 04:18:05;;;;;;;28.95;18.70;;;4.90;38.10;;;;;;7366775;19;20027;-69
2023/04/26 04:20:35;;;;;;;36.60;20.95;;;4.80;38.00;;;;;;7385373;19;20010;-70
2023/04/26 04:23:06;;;;;;;40.55;20.98;;;4.80;38.70;;;;;;7365728;19;20032;-70
2023/04/26 04:25:39;;;;;;;39.88;21.13;;;4.80;38.60;;;;;;7362517;19;20011;-70
2023/04/26 04:28:10;;;;;;;37.55;20.25;;;4.70;38.70;;;;;;7366557;19;20420;-69
2023/04/26 04:30:40;;;;;;;41.00;22.20;;;4.70;39.40;;;;;;7364362;19;20007;-69
2023/04/26 04:33:09;;;;;;;44.42;22.27;;;4.70;39.40;;;;;;7366247;19;20008;-70
2023/04/26 04:35:39;;;;;;;60.65;23.50;;;4.70;41.20;;;;;;7382377;19;20475;-69
2023/04/26 04:38:09;;;;;;;41.83;22.65;;;4.70;41.90;;;;;;7365491;19;20051;-70
2023/04/26 04:40:42;;;;;;;57.90;23.88;;;4.80;42.70;;;;;;7362989;19;20466;-70
2023/04/26 04:43:13;;;;;;;54.22;23.45;;;4.80;42.00;;;;;;7365875;19;20617;-68
2023/04/26 04:45:43;;;;;;;71.65;25.40;;;4.70;42.00;;;;;;7368908;19;20013;-69
2023/04/26 04:48:13;;;;;;;59.60;23.17;;;4.80;42.30;;;;;;7373468;19;20010;-69
2023/04/26 04:50:43;;;;;;;106.68;25.92;;;4.70;42.80;;;;;;7391037;19;20021;-70
2023/04/26 04:53:14;;;;;;;73.80;24.20;;;4.70;43.90;;;;;;7372386;19;20016;-69
2023/04/26 04:55:48;;;;;;;72.82;24.80;;;4.70;44.80;;;;;;7369828;19;20017;-70
2023/04/26 04:58:17;;;;;;;70.88;24.85;;;4.70;45.30;;;;;;7372292;19;20007;-70
2023/04/26 05:00:47;;;;;;;56.63;24.20;;;4.80;46.50;;;;;;7370580;19;20010;-70
2023/04/26 05:03:17;;;;;;;42.55;23.83;;;4.90;47.30;;;;;;7371656;19;20485;-70
2023/04/26 05:05:47;;;;;;;47.63;24.73;;;4.90;48.00;;;;;;7390660;19;20089;-69
2023/04/26 05:08:17;;;;;;;110.47;23.90;;;5.00;49.00;;;;;;7372245;19;20375;-69
2023/04/26 05:10:50;;;;;;;49.58;23.65;;;4.70;46.00;;;;;;7369990;19;20015;-69
2023/04/26 05:13:20;;;;;;;47.25;22.67;;;5.00;49.30;;;;;;7372800;19;20010;-69
2023/04/26 05:15:50;;;;;;;46.22;23.45;;;5.10;49.50;;;;;;7369859;19;20010;-69
2023/04/26 05:18:20;;;;;;;42.60;22.20;;;5.10;48.30;;;;;;7371868;19;20017;-70
2023/04/26 05:20:50;;;;;;;44.22;22.55;;;5.00;46.30;;;;;;7390275;19;20030;-73
2023/04/26 05:23:20;;;;;;;45.88;22.58;;;5.10;46.90;;;;;;7393361;19;20010;-69
2023/04/26 05:25:52;;;;;;;41.75;22.08;;;4.90;42.00;;;;;;7368175;19;20462;-70
2023/04/26 05:28:22;;;;;;;43.30;21.75;;;5.20;45.50;;;;;;7370170;19;20010;-70
2023/04/26 05:30:52;;;;;;;40.58;22.65;;;5.70;43.20;;;;;;7369337;19;20473;-70
2023/04/26 05:33:22;;;;;;;39.55;22.13;;;5.90;36.50;;;;;;7369974;19;20486;-68
2023/04/26 05:35:53;;;;;;;36.67;21.65;;;5.70;35.80;;;;;;7370239;19;20622;-70
2023/04/26 05:38:23;;;;;;;45.80;22.15;;;5.90;36.30;;;;;;7391116;19;20007;-70
2023/04/26 05:40:56;;;;;;;38.92;21.38;;;6.00;36.80;;;;;;7367736;19;20043;-69
2023/04/26 05:43:25;;;;;;;36.08;22.23;;;6.30;30.60;;;;;;7369178;19;20007;-69
2023/04/26 05:45:57;;;;;;;33.70;19.45;;;6.40;29.00;;;;;;7368380;19;20003;-69
2023/04/26 05:48:28;;;;;;;34.72;21.45;;;5.70;23.50;;;;;;7369028;19;20010;-70
2023/04/26 05:50:58;;;;;;;35.30;20.60;;;6.10;30.50;;;;;;7367642;19;20078;-69
2023/04/26 05:53:28;;;;;;;36.95;20.88;;;6.40;28.60;;;;;;7390040;19;20015;-69
2023/04/26 05:56:01;;;;;;;36.90;20.58;;;6.90;22.90;;;;;;7366758;19;20059;-69
2023/04/26 05:58:32;;;;;;;32.63;19.17;;;6.90;20.80;;;;;;7368791;19;20447;-69
2023/04/26 06:01:02;;;;;;;34.05;19.75;;;7.00;14.00;;;;;;7369098;19;20041;-70
2023/04/26 06:03:32;;;;;;;30.77;18.60;;;7.20;16.00;;;;;;7368294;19;20007;-69
2023/04/26 06:06:02;;;;;;;30.92;19.35;;;7.40;14.10;;;;;;7368194;19;20014;-70
2023/04/26 06:08:32;;;;;;;34.53;19.83;;;7.20;12.00;;;;;;7391199;19;20018;-69
2023/04/26 06:11:06;;;;;;;34.13;19.10;;;7.10;14.40;;;;;;7365600;19;20006;-68
2023/04/26 06:13:36;;;;;;;32.60;19.55;;;7.40;14.10;;;;;;7368561;19;20009;-70
2023/04/26 06:16:08;;;;;;;28.45;18.52;;;7.50;11.30;;;;;;7368060;19;20022;-69
2023/04/26 06:18:37;;;;;;;33.97;18.83;;;7.30;10.30;;;;;;7369807;19;20038;-69
2023/04/26 06:21:08;;;;;;;29.73;17.70;;;7.50;9.70;;;;;;7366972;19;20018;-69
2023/04/26 06:23:38;;;;;;;28.85;15.98;;;7.60;8.70;;;;;;7389639;19;20011;-69
2023/04/26 06:26:10;;;;;;;26.02;15.85;;;7.40;6.80;;;;;;7367013;19;20729;-70
2023/04/26 06:28:40;;;;;;;23.58;14.93;;;7.20;7.40;;;;;;7367718;19;20077;-69
2023/04/26 06:31:11;;;;;;;23.15;14.80;;;7.20;6.70;;;;;;7367673;19;20003;-69
2023/04/26 06:33:41;;;;;;;24.58;14.15;;;7.20;6.70;;;;;;7368653;19;20695;-69
2023/04/26 06:36:13;;;;;;;23.08;14.13;;;7.10;5.50;;;;;;7369492;19;20019;-69
2023/04/26 06:38:43;;;;;;;20.45;12.10;;;7.30;4.10;;;;;;7390175;19;20021;-70
2023/04/26 06:41:15;;;;;;;27.30;14.10;;;7.40;1.00;;;;;;7365190;19;20018;-69
2023/04/26 06:43:45;;;;;;;23.38;14.45;;;7.50;1.00;;;;;;7366645;19;20105;-70
2023/04/26 06:46:15;;;;;;;22.90;13.90;;;7.80;1.00;;;;;;7368985;19;20026;-70
2023/04/26 06:48:45;;;;;;;23.70;13.80;;;7.80;1.00;;;;;;7367606;19;20007;-69
2023/04/26 06:51:15;;;;;;;23.75;13.95;;;7.90;1.00;;;;;;7368612;19;20015;-69
2023/04/26 06:53:45;;;;;;;23.35;13.15;;;7.60;1.00;;;;;;7385170;19;20482;-69
2023/04/26 06:56:18;;;;;;;21.70;13.52;;;7.90;1.00;;;;;;7367845;19;20011;-70
2023/04/26 06:59:01;;;;;;;23.85;12.65;;;8.10;1.00;;;;;;7368438;19;20010;-69
2023/04/26 07:01:32;;;;;;;21.27;11.20;;;7.50;1.00;;;;;;7367100;19;20486;-69
2023/04/26 07:04:03;;;;;;;20.90;11.50;;;7.90;1.00;;;;;;7365200;19;20024;-69
2023/04/26 07:06:33;;;;;;;19.20;10.48;;;8.10;1.00;;;;;;7367231;19;20018;-70
2023/04/26 07:09:04;;;;;;;19.52;10.57;;;8.30;1.00;;;;;;7367306;19;20010;-69
2023/04/26 07:11:36;;;;;;;17.58;9.02;;;8.70;1.00;;;;;;7389108;19;20018;-69
2023/04/26 07:14:07;;;;;;;15.25;6.97;;;9.10;1.00;;;;;;7364964;19;20018;-69
2023/04/26 07:16:36;;;;;;;15.07;8.73;;;9.00;1.00;;;;;;7367730;19;20014;-69
2023/04/26 07:19:07;;;;;;;9.93;6.32;;;8.90;1.00;;;;;;7367115;19;20022;-69
2023/04/26 07:21:37;;;;;;;6.82;4.57;;;9.10;1.00;;;;;;7368063;19;20014;-69
2023/04/26 07:24:08;;;;;;;8.85;4.85;;;8.80;1.00;;;;;;7364790;19;20010;-69
2023/04/26 07:26:40;;;;;;;7.50;5.35;;;9.00;1.00;;;;;;7388986;19;20018;-70
2023/04/26 07:29:10;;;;;;;15.77;8.48;;;8.80;1.00;;;;;;7366699;19;20093;-70
2023/04/26 07:31:40;;;;;;;14.43;8.60;;;9.10;1.00;;;;;;7367075;19;20085;-71
2023/04/26 07:34:10;;;;;;;10.90;7.43;;;9.30;1.00;;;;;;7365285;19;20010;-70
2023/04/26 07:36:40;;;;;;;14.52;7.53;;;9.00;1.00;;;;;;7368221;19;20010;-69
2023/04/26 07:39:10;;;;;;;15.60;7.40;;;8.90;1.00;;;;;;7366792;19;20132;-70
2023/04/26 07:41:43;;;;;;;9.27;4.18;;;9.10;1.00;;;;;;7387787;19;20015;-69
2023/04/26 07:44:13;;;;;;;10.18;4.43;;;8.90;1.00;;;;;;7364856;19;20006;-70
2023/04/26 07:46:43;;;;;;;8.82;4.55;;;9.60;1.00;;;;;;7365843;19;20031;-69
2023/04/26 07:49:12;;;;;;;8.52;4.60;;;9.30;1.00;;;;;;7366735;19;20367;-70
2023/04/26 07:51:46;;;;;;;8.43;4.85;;;9.30;1.00;;;;;;7365619;19;20018;-69
2023/04/26 07:54:15;;;;;;;7.20;4.30;;;9.40;1.00;;;;;;7363856;19;20007;-71
2023/04/26 07:56:48;;;;;;;7.15;4.50;;;9.80;1.00;;;;;;7388011;19;20470;-70
2023/04/26 07:59:18;;;;;;;8.25;4.63;;;9.70;1.00;;;;;;7364878;19;20418;-69
2023/04/26 08:01:48;;;;;;;9.82;5.18;;;9.30;1.00;;;;;;7365898;19;20028;-70
2023/04/26 08:04:18;;;;;;;9.10;4.70;;;9.60;1.00;;;;;;7364226;19;20006;-69
2023/04/26 08:06:48;;;;;;;7.53;4.43;;;9.60;1.00;;;;;;7366021;19;20025;-70
2023/04/26 08:09:19;;;;;;;7.50;3.92;;;9.30;1.00;;;;;;7364926;19;20427;-69
2023/04/26 08:11:51;;;;;;;5.82;4.38;;;9.80;1.00;;;;;;7387827;19;20031;-69
2023/04/26 08:14:22;;;;;;;9.55;4.50;;;9.70;1.00;;;;;;7362410;19;20352;-69
2023/04/26 08:16:52;;;;;;;6.32;3.88;;;10.30;1.00;;;;;;7365793;19;20006;-70
2023/04/26 08:19:22;;;;;;;7.10;4.40;;;10.70;1.00;;;;;;7366740;19;20002;-69
2023/04/26 08:21:52;;;;;;;8.43;4.13;;;10.90;1.00;;;;;;7372745;19;20010;-70
2023/04/26 08:24:22;;;;;;;8.15;4.80;;;9.70;1.00;;;;;;7370275;19;20483;-70
2023/04/26 08:26:58;;;;;;;7.18;4.70;;;9.70;1.00;;;;;;7373005;19;20018;-69
2023/04/26 08:29:29;;;;;;;7.20;3.85;;;10.30;1.00;;;;;;7392722;19;20414;-70
2023/04/26 08:31:59;;;;;;;10.10;5.28;;;10.30;1.00;;;;;;7372533;19;20019;-70
2023/04/26 08:34:29;;;;;;;9.85;5.35;;;10.10;1.00;;;;;;7369821;19;20014;-70
2023/04/26 08:36:59;;;;;;;8.30;4.88;;;10.40;1.00;;;;;;7371950;19;20025;-70
2023/04/26 08:39:29;;;;;;;8.75;4.90;;;10.90;1.00;;;;;;7371585;19;20807;-70
2023/04/26 08:42:07;;;;;;;15.10;4.95;;;11.20;1.00;;;;;;7372455;19;20014;-70
2023/04/26 08:44:38;;;;;;;10.88;5.28;;;10.90;1.00;;;;;;7391020;19;20056;-69
2023/04/26 08:47:15;;;;;;;9.90;5.18;;;10.40;1.00;;;;;;7370042;19;20018;-69
2023/04/26 08:49:47;;;;;;;8.80;4.53;;;10.70;1.00;;;;;;7370259;19;20018;-70
2023/04/26 08:52:21;;;;;;;10.10;5.00;;;10.80;1.00;;;;;;7372030;19;20002;-71
2023/04/26 08:54:52;;;;;;;;;;;10.90;1.00;;;;;;7369151;19;20049;-69
2023/04/26 08:57:26;;;;;;;8.98;4.35;;;10.20;1.00;;;;;;7372207;19;19915;-70
2023/04/26 08:59:58;;;;;;;7.45;4.15;;;9.90;1.00;;;;;;7369920;19;20090;-70
2023/04/26 09:02:28;;;;;;;12.00;4.72;;;9.70;1.00;;;;;;7393800;19;20017;-70
2023/04/26 09:04:58;;;;;;;10.18;4.60;;;9.70;1.00;;;;;;7367878;19;20102;-68
2023/04/26 09:07:32;;;;;;;11.48;4.70;;;10.10;1.00;;;;;;7371246;19;20014;-70
2023/04/26 09:10:05;;;;;;;9.98;4.47;;;10.50;1.00;;;;;;7369524;19;20025;-69
2023/04/26 09:12:38;;;;;;;10.20;4.50;;;10.60;1.00;;;;;;7372247;19;20092;-69
2023/04/26 09:15:09;;;;;;;8.23;4.50;;;11.00;1.00;;;;;;7368273;19;20015;-69
2023/04/26 09:17:41;;;;;;;7.28;4.07;;;10.80;1.00;;;;;;7393727;19;20014;-69
2023/04/26 09:20:22;;;;;;;9.07;4.30;;;10.70;1.00;;;;;;7368555;19;20494;-70
2023/04/26 09:22:54;;;;;;;9.50;4.63;;;10.60;1.00;;;;;;7371078;19;20383;-68
2023/04/26 09:25:30;;;;;;;6.18;4.15;;;10.90;1.00;;;;;;7367343;19;20007;-70
2023/04/26 09:28:04;;;;;;;9.30;4.40;;;11.10;1.00;;;;;;7370185;19;20006;-70
2023/04/26 09:30:40;;;;;;;9.80;4.47;;;11.20;1.00;;;;;;7369893;19;20021;-71
2023/04/26 09:33:10;;;;;;;11.93;4.43;;;11.90;1.00;;;;;;7370633;19;20023;-70
2023/04/26 09:35:42;;;;;;;10.82;4.85;;;11.40;1.00;;;;;;7390275;19;20011;-70
2023/04/26 09:38:13;;;;;;;12.35;5.10;;;11.90;1.00;;;;;;7371353;19;20017;-70
2023/04/26 09:40:45;;;;;;;11.68;5.05;;;12.50;1.00;;;;;;7368624;19;20014;-68
2023/04/26 09:43:19;;;;;;;9.00;5.20;;;12.80;1.00;;;;;;7369671;19;20020;-70
2023/04/26 09:45:51;;;;;;;8.25;4.57;;;12.70;1.00;;;;;;7369277;19;20050;-70
2023/04/26 09:48:24;;;;;;;8.95;5.00;;;13.10;1.00;;;;;;7368895;19;20508;-70
2023/04/26 09:50:56;;;;;;;11.50;5.20;;;13.40;1.00;;;;;;7368467;19;20014;-69
2023/04/26 09:53:33;;;;;;;7.57;4.88;;;13.60;1.00;;;;;;7391151;19;20018;-71
2023/04/26 09:56:10;;;;;;;7.82;5.18;;;12.80;1.00;;;;;;7368577;19;20842;-70
2023/04/26 09:59:00;;;;;;;6.30;4.80;;;12.60;1.00;;;;;;7368685;19;20090;-70
2023/04/26 10:01:33;;;;;;;9.70;5.13;;;12.70;1.00;;;;;;7369428;19;20490;-69
2023/04/26 10:04:03;;;;;;;11.68;5.32;;;12.60;1.00;;;;;;7367815;19;20018;-69
2023/04/26 10:06:34;;;;;;;6.93;4.32;;;12.20;1.00;;;;;;7369776;19;20021;-68
2023/04/26 10:09:07;;;;;;;9.38;4.55;;;11.40;1.00;;;;;;7366675;19;20533;-70
2023/04/26 10:11:39;;;;;;;6.75;4.53;;;11.30;1.00;;;;;;7391931;19;20016;-69
2023/04/26 10:14:12;;;;;;;10.45;4.47;;;11.60;1.00;;;;;;7367195;19;20015;-69
2023/04/26 10:16:43;;;;;;;12.65;4.95;;;12.20;1.00;;;;;;7369802;19;20010;-71
2023/04/26 10:19:13;;;;;;;5.85;3.50;;;12.60;1.00;;;;;;7368969;19;20034;-70
2023/04/26 10:21:45;;;;;;;8.13;3.30;;;12.00;1.00;;;;;;7369186;19;20474;-70
2023/04/26 10:24:15;;;;;;;5.25;3.47;;;12.00;1.00;;;;;;7366985;19;20359;-70
2023/04/26 10:26:50;;;;;;;6.88;3.92;;;12.30;1.00;;;;;;7390404;19;20016;-70
2023/04/26 10:29:24;;;;;;;7.03;4.00;;;12.20;1.00;;;;;;7365855;19;20014;-69
2023/04/26 10:32:15;;;;;;;9.10;4.40;;;12.20;1.00;;;;;;7368573;19;20013;-69
2023/04/26 10:34:45;;;;;;;13.15;3.42;;;12.00;1.00;;;;;;7366439;19;20098;-68
2023/04/26 10:37:17;;;;;;;7.90;3.72;;;12.30;1.00;;;;;;7368252;19;20003;-69
2023/04/26 10:39:47;;;;;;;8.50;3.65;;;12.40;1.00;;;;;;7364885;19;20581;-71
2023/04/26 10:42:26;;;;;;;6.00;2.83;;;11.40;1.00;;;;;;7367784;19;20010;-69
2023/04/26 10:45:01;;;;;;;6.88;3.25;;;11.50;1.00;;;;;;7364318;19;20056;-69
2023/04/26 10:47:33;;;;;;;4.72;3.08;;;11.70;1.00;;;;;;7389188;19;20018;-70
2023/04/26 10:50:06;;;;;;;6.97;3.47;;;11.50;1.00;;;;;;7365990;19;20388;-70
2023/04/26 10:52:36;;;;;;;6.65;3.38;;;11.60;1.00;;;;;;7368054;19;20513;-70
2023/04/26 10:55:09;;;;;;;8.30;3.70;;;11.60;1.00;;;;;;7365990;19;20030;-69
2023/04/26 10:58:00;;;;;;;5.05;3.42;;;11.60;1.00;;;;;;7367065;19;20024;-70
2023/04/26 11:00:35;;;;;;;5.90;2.95;;;12.30;1.00;;;;;;7366879;19;20012;-70
2023/04/26 11:03:08;;;;;;;7.10;3.35;;;12.50;1.00;;;;;;7367167;19;20108;-70
2023/04/26 11:06:04;;;;;;;9.30;3.13;;;12.40;1.00;;;;;;7387519;19;20340;-69
2023/04/26 11:08:35;;;;;;;6.28;3.05;;;11.80;1.00;;;;;;7366406;19;20036;-69
2023/04/26 11:11:10;;;;;;;5.45;2.20;;;12.40;1.00;;;;;;7364237;19;20014;-70
2023/04/26 11:13:41;;;;;;;5.10;2.63;;;12.90;1.00;;;;;;7365213;19;20035;-69
2023/04/26 11:16:15;;;;;;;5.57;2.80;;;12.60;1.00;;;;;;7358638;19;20011;-70
2023/04/26 11:18:46;;;;;;;8.80;3.80;;;12.50;1.00;;;;;;7366083;19;20015;-70
2023/04/26 11:21:17;;;;;;;6.82;3.30;;;12.70;1.00;;;;;;7366804;19;20470;-69
2023/04/26 11:23:55;;;;;;;7.50;3.78;;;12.50;1.00;;;;;;7387797;19;20021;-70
2023/04/26 11:26:33;;;;;;;7.32;2.83;;;12.20;1.00;;;;;;7366182;19;20011;-69
2023/04/26 11:29:03;;;;;;;5.60;3.50;;;12.50;1.00;;;;;;7364994;19;20501;-70
2023/04/26 11:31:36;;;;;;;6.50;3.85;;;12.60;1.00;;;;;;7366792;19;20011;-70
2023/04/26 11:34:07;;;;;;;5.90;3.80;;;13.40;1.00;;;;;;7363205;19;20546;-70
2023/04/26 11:36:39;;;;;;;7.82;3.95;;;14.00;1.00;;;;;;7365896;19;20006;-69
2023/04/26 11:39:09;;;;;;;8.82;4.28;;;14.00;1.00;;;;;;7363955;19;20014;-70
2023/04/26 11:41:43;;;;;;;5.50;3.60;;;14.40;1.00;;;;;;7388054;19;20022;-70
2023/04/26 11:44:13;;;;;;;7.93;3.20;;;14.50;1.00;;;;;;7364374;19;20110;-69
2023/04/26 11:46:46;;;;;;;6.25;3.65;;;15.00;1.00;;;;;;7366216;19;20046;-69
2023/04/26 11:49:17;;;;;;;4.28;2.55;;;14.70;1.00;;;;;;7365001;19;20031;-69
2023/04/26 11:51:50;;;;;;;6.68;3.70;;;14.40;1.00;;;;;;7367366;19;20078;-70
2023/04/26 11:54:31;;;;;;;6.57;3.53;;;14.70;1.00;;;;;;7367427;19;20018;-71
2023/04/26 11:57:01;;;;;;;5.28;3.15;;;14.60;1.00;;;;;;7374245;19;20013;-70
2023/04/26 11:59:32;;;;;;;7.22;3.97;;;15.10;1.00;;;;;;7393607;19;20023;-69
2023/04/26 12:02:08;;;;;;;5.65;3.63;;;15.00;1.00;;;;;;7373731;19;20025;-70
2023/04/26 12:04:40;;;;;;;5.88;3.28;;;14.70;1.00;;;;;;7371387;19;20031;-69
2023/04/26 12:07:10;;;;;;;8.45;4.20;;;13.80;1.00;;;;;;7372983;19;20086;-70
2023/04/26 12:09:42;;;;;;;6.25;3.33;;;14.60;1.00;;;;;;7371505;19;20010;-71
2023/04/26 12:12:13;;;;;;;4.82;3.72;;;14.70;1.00;;;;;;7373506;19;20025;-70
2023/04/26 12:14:44;;;;;;;6.88;3.90;;;14.10;1.00;;;;;;7392836;19;20502;-71
2023/04/26 12:17:17;;;;;;;6.30;3.53;;;14.60;1.00;;;;;;7372762;19;20018;-70
2023/04/26 12:19:51;;;;;;;7.47;3.15;;;14.40;1.00;;;;;;7371383;19;20015;-71
2023/04/26 12:22:22;;;;;;;5.43;3.03;;;14.50;1.00;;;;;;7372972;19;20015;-71
2023/04/26 12:25:06;;;;;;;5.63;3.15;;;14.20;1.00;;;;;;7369329;19;20014;-71
2023/04/26 12:27:37;;;;;;;5.93;3.58;;;13.90;1.00;;;;;;7373382;19;20018;-70
2023/04/26 12:30:09;;;;;;;4.75;3.20;;;13.60;1.00;;;;;;7370864;19;20474;-71
2023/04/26 12:32:41;;;;;;;6.57;3.47;;;14.00;1.00;;;;;;7395874;19;20022;-71
2023/04/26 12:35:11;;;;;;;7.35;3.83;;;14.90;1.00;;;;;;7370000;19;20013;-69
2023/04/26 12:37:41;;;;;;;7.38;3.83;;;14.40;1.00;;;;;;7371979;19;20017;-70
2023/04/26 12:40:13;;;;;;;7.93;3.40;;;14.20;1.00;;;;;;7369041;19;20013;-71
2023/04/26 12:42:43;;;;;;;7.68;3.72;;;13.90;1.00;;;;;;7372779;19;20014;-71
2023/04/26 12:45:13;;;;;;;6.00;3.63;;;14.10;1.00;;;;;;7370553;19;20439;-70
2023/04/26 12:47:45;;;;;;;9.38;3.33;;;14.30;1.00;;;;;;7392696;19;20545;-71
2023/04/26 12:50:17;;;;;;;7.10;3.80;;;14.20;1.00;;;;;;7364307;19;20085;-70
2023/04/26 12:52:47;;;;;;;6.13;3.50;;;14.30;1.00;;;;;;7368269;19;20014;-70
2023/04/26 12:55:18;;;;;;;7.30;3.90;;;14.70;1.00;;;;;;7368741;19;20006;-71
2023/04/26 12:57:48;;;;;;;6.18;3.53;;;14.40;1.00;;;;;;7367485;19;20023;-71
2023/04/26 13:00:20;;;;;;;6.40;3.63;;;15.10;1.00;;;;;;7368387;19;20028;-70
2023/04/26 13:02:53;;;;;;;8.32;4.05;;;14.40;1.00;;;;;;7388734;19;20038;-69
2023/04/26 13:05:24;;;;;;;7.50;3.80;;;14.20;1.00;;;;;;7387281;19;20085;-70
2023/04/26 13:07:54;;;;;;;5.75;3.85;;;13.30;1.00;;;;;;7370025;19;20113;-70
2023/04/26 13:10:24;;;;;;;8.32;3.63;;;13.60;1.00;;;;;;7367186;19;20077;-70
2023/04/26 13:12:54;;;;;;;6.35;3.50;;;13.30;1.00;;;;;;7365323;19;20580;-70